Have a Safe July 4th! 

Flight Track Log - Related Links

Times and Time Zones

All times are in EDT time to prevent confusion due to time zone crossing. See the JAI365 flight status page for this flight to view local times or setup timezone preferences in your user account.

Time Position Orientation Groundspeed Altitude Reporting Facility
EDT Latitude Longitude Course Direction KTS MPH feet Rate Location/Type
Sat 11:24:32 PM 28.5380 77.1070 102° East 159 183 1,800  Level FlightAware ADS-B
Sat 11:25:02 PM 28.5230 77.1310 125° Southeast 212 244 2,500 2,314 Climbing FlightAware ADS-B
Sat 11:25:42 PM 28.4840 77.1170 198° South 248 285 4,500 2,829 Climbing FlightAware ADS-B
Sat 11:26:12 PM 28.4490 77.1030 199° South 268 308 5,800 1,636 Climbing FlightAware ADS-B
Sat 11:26:37 PM 28.4260 77.0820 219° Southwest 271 312 6,000 764 Climbing FlightAware ADS-B
Sat 11:27:07 PM 28.3970 77.0550 219° Southwest 270 311 6,500 2,000 Climbing FlightAware ADS-B
Sat 11:27:22 PM 28.3810 77.0410 218° Southwest 269 310 7,500 3,600 Climbing FlightAware ADS-B
Sat 11:27:52 PM 28.3510 77.0140 218° Southwest 279 321 9,200 2,914 Climbing FlightAware ADS-B
Sat 11:28:32 PM 28.3090 76.9770 218° Southwest 308 354 10,900 2,625 Climbing FlightAware ADS-B
Sat 11:29:12 PM 28.2610 76.9330 219° Southwest 340 391 12,700 2,965 Climbing FlightAware ADS-B
Sat 11:29:57 PM 28.2060 76.8840 218° Southwest 357 411 15,100 3,318 Climbing FlightAware ADS-B
Sat 11:30:37 PM 28.1530 76.8370 218° Southwest 365 420 17,400 3,525 Climbing FlightAware ADS-B
Sat 11:31:17 PM 28.1000 76.7890 219° Southwest 369 425 19,800 3,459 Climbing FlightAware ADS-B
Sat 11:32:02 PM 28.0370 76.7330 218° Southwest 377 434 22,300 3,035 Climbing FlightAware ADS-B
Sat 11:32:42 PM 27.9820 76.6840 218° Southwest 390 449 24,100 2,329 Climbing FlightAware ADS-B
Sat 11:33:27 PM 27.9160 76.6260 218° Southwest 414 476 25,600 1,976 Climbing FlightAware ADS-B
Sat 11:34:07 PM 27.8550 76.5710 219° Southwest 434 499 26,900 2,100 Climbing FlightAware ADS-B
Sat 11:34:47 PM 27.7900 76.5140 218° Southwest 445 512 28,400 2,400 Climbing FlightAware ADS-B
Sat 11:35:27 PM 27.7250 76.4660 213° Southwest 445 512 30,100 1,958 Climbing FlightAware ADS-B
Sat 11:36:22 PM 27.6290 76.3950 213° Southwest 443 510 31,500 2,820 Climbing FlightAware ADS-B
Sat 11:37:07 PM 27.5500 76.3440 210° Southwest 428 493 34,800 2,040 Climbing FlightAware ADS-B
Sat 11:38:02 PM 27.4520 76.2970 203° Southwest 447 514 34,900 63 Climbing FlightAware ADS-B
Sat 11:38:42 PM 27.3870 76.2660 203° Southwest 447 514 34,900  Level FlightAware ADS-B
Sat 11:39:32 PM 27.3060 76.2270 203° Southwest 447 514 34,900 2,460 Level FlightAware ADS-B
Sat 11:40:22 PM 27.1790 76.1620 204° Southwest 446 513 39,000 3,075 Climbing FlightAware ADS-B
Sat 11:40:52 PM 27.1310 76.1390 203° Southwest 446 513 39,000  Level FlightAware ADS-B
Sat 11:41:32 PM 27.0660 76.1080 203° Southwest 446 513 39,000  Level FlightAware ADS-B
Sat 11:42:12 PM 27.0010 76.0770 203° Southwest 446 513 39,000  Level FlightAware ADS-B
Sat 11:42:52 PM 26.9370 76.0470 203° Southwest 446 513 39,000  Level FlightAware ADS-B
Sat 11:43:42 PM 26.8560 76.0080 203° Southwest 446 513 39,000  Level FlightAware ADS-B
Sat 11:44:22 PM 26.7920 75.9770 203° Southwest 446 513 39,000  Level FlightAware ADS-B
Sat 11:45:02 PM 26.7270 75.9470 202° Southwest 446 513 39,000  Level FlightAware ADS-B
Sat 11:45:42 PM 26.6620 75.9160 203° Southwest 446 513 39,000  Level FlightAware ADS-B
Sat 11:46:22 PM 26.5980 75.8850 203° Southwest 446 513 39,000  Level FlightAware ADS-B
Sat 11:47:12 PM 26.5170 75.8470 203° Southwest 446 513 39,000  Level FlightAware ADS-B
Sat 11:47:52 PM 26.4520 75.8160 203° Southwest 446 513 39,000  Level FlightAware ADS-B
Sat 11:48:32 PM 26.3880 75.7860 203° Southwest 446 513 39,000  Level FlightAware ADS-B
Sat 11:49:12 PM 26.3230 75.7550 203° Southwest 446 513 39,000  Level FlightAware ADS-B
Sat 11:49:52 PM 26.2590 75.7250 203° Southwest 446 513 39,000 -458 Level FlightAware ADS-B
Sat 11:52:00 PM 26.0623 75.6760 193° South  Level Estimated
Sat 11:53:00 PM 25.9700 75.6530 193° South  Level Estimated
Sat 11:54:00 PM 25.8778 75.6301 193° South  Level Estimated
Sat 11:55:00 PM 25.7856 75.6073 193° South  Level Estimated
Sat 11:56:00 PM 25.6933 75.5845 193° South  Level Estimated
Sat 11:57:00 PM 25.6002 75.5615 193° South  Level Estimated
Sat 11:58:00 PM 25.5072 75.5385 193° South  Level Estimated
Sat 11:59:00 PM 25.4140 75.5156 193° South  Level Estimated
Sun 12:00:00 AM 25.3209 75.4927 193° South  Level Estimated
Sun 12:01:00 AM 25.2278 75.4699 193° South  Level Estimated
Sun 12:02:00 AM 25.1347 75.4471 193° South  Level Estimated
Sun 12:03:00 AM 25.0416 75.4243 192° South  Level Estimated
Sun 12:04:00 AM 24.9485 75.4015 192° South  Level Estimated
Sun 12:05:00 AM 24.8554 75.3788 192° South  Level Estimated
Sun 12:06:00 AM 24.7623 75.3561 192° South  Level Estimated
Sun 12:07:00 AM 24.6692 75.3335 192° South  Level Estimated
Sun 12:08:00 AM 24.5760 75.3109 192° South  Level Estimated
Sun 12:09:00 AM 24.4829 75.2883 192° South  Level Estimated
Sun 12:10:00 AM 24.3898 75.2658 192° South  Level Estimated
Sun 12:11:00 AM 24.2966 75.2432 192° South  Level Estimated
Sun 12:12:00 AM 24.2035 75.2208 192° South  Level Estimated
Sun 12:13:00 AM 24.1103 75.1983 192° South  Level Estimated
Sun 12:14:00 AM 24.0172 75.1759 192° South  Level Estimated
Sun 12:15:00 AM 23.9240 75.1535 192° South  Level Estimated
Sun 12:16:00 AM 23.8309 75.1312 192° South  Level Estimated
Sun 12:17:00 AM 23.7377 75.1089 192° South  Level Estimated
Sun 12:18:00 AM 23.6446 75.0866 192° South  Level Estimated
Sun 12:19:00 AM 23.5514 75.0643 192° South  Level Estimated
Sun 12:20:00 AM 23.4583 75.0421 192° South  Level Estimated
Sun 12:21:00 AM 23.3651 75.0199 192° South  Level Estimated
Sun 12:22:00 AM 23.2719 74.9978 192° South  Level Estimated
Sun 12:23:00 AM 23.1787 74.9756 192° South  Level Estimated
Sun 12:24:00 AM 23.0856 74.9536 192° South  Level Estimated
Sun 12:25:00 AM 22.9924 74.9315 192° South  Level Estimated
Sun 12:26:00 AM 22.8992 74.9095 192° South  Level Estimated
Sun 12:27:00 AM 22.8060 74.8875 192° South  Level Estimated
Sun 12:28:00 AM 22.7128 74.8655 192° South  Level Estimated
Sun 12:29:00 AM 22.6196 74.8436 192° South  Level Estimated
Sun 12:30:00 AM 22.5264 74.8216 192° South  Level Estimated
Sun 12:31:00 AM 22.4332 74.7998 192° South  Level Estimated
Sun 12:32:00 AM 22.3400 74.7779 192° South  Level Estimated
Sun 12:33:00 AM 22.2468 74.7561 192° South  Level Estimated
Sun 12:34:00 AM 22.1536 74.7343 192° South  Level Estimated
Sun 12:35:00 AM 22.0604 74.7125 192° South  Level Estimated
Sun 12:36:00 AM 21.9672 74.6908 192° South  Level Estimated
Sun 12:37:00 AM 21.8740 74.6691 192° South  Level Estimated
Sun 12:38:00 AM 21.7808 74.6474 192° South  Level Estimated
Sun 12:39:00 AM 21.6875 74.6257 192° South  Level Estimated
Sun 12:40:00 AM 21.5943 74.6041 192° South  Level Estimated
Sun 12:41:00 AM 21.5011 74.5825 192° South  Level Estimated
Sun 12:42:00 AM 21.4079 74.5609 192° South  Level Estimated
Sun 12:43:00 AM 21.3146 74.5394 192° South  Level Estimated
Sun 12:44:00 AM 21.2214 74.5179 192° South  Level Estimated
Sun 12:45:00 AM 21.1282 74.4964 192° South  Level Estimated
Sun 12:46:00 AM 21.0349 74.4749 192° South  Level Estimated
Sun 12:47:00 AM 20.9417 74.4535 192° South  Level Estimated
Sun 12:48:00 AM 20.8484 74.4321 192° South  Level Estimated
Sun 12:49:00 AM 20.7552 74.4107 192° South  Level Estimated
Sun 12:50:00 AM 20.6619 74.3893 192° South  Level Estimated
Sun 12:50:37 AM 19.0300 73.8970 192° South 321 369 10,900  Level FlightAware ADS-B
Sun 12:51:00 AM 20.5687 74.3680 192° South  Level Estimated
Sun 12:51:22 AM 18.9690 73.9360 149° Southeast 311 358 9,700  Level FlightAware ADS-B
Sun 12:51:52 AM 18.9320 73.9600 148° Southeast 302 348 9,100 -1,200 Descending FlightAware ADS-B
Sun 12:52:12 AM 18.9090 73.9750 148° Southeast 296 341 8,700 -1,418 Descending FlightAware ADS-B
Sun 12:52:47 AM 18.8690 74.0020 147° Southeast 292 336 7,800 -1,700 Descending FlightAware ADS-B
Sun 12:53:12 AM 18.8380 74.0200 151° Southeast 291 335 7,000 -1,800 Descending FlightAware ADS-B
Sun 12:53:37 AM 18.8090 74.0320 159° South 292 336 6,300 -1,527 Descending FlightAware ADS-B
Sun 12:54:07 AM 18.7700 74.0480 159° South 289 333 5,600 -857 Descending FlightAware ADS-B
Sun 12:54:47 AM 18.7240 74.0680 158° South 287 330 5,300 -1,200 Descending FlightAware ADS-B
Sun 12:55:17 AM 18.6850 74.0830 160° South 272 313 4,200 -1,400 Descending FlightAware ADS-B
Sun 12:55:47 AM 18.6500 74.0940 163° South 251 289 3,900 -400 Descending FlightAware ADS-B
Sun 12:56:17 AM 18.6170 74.0950 178° South 232 267 3,800 -86 Descending FlightAware ADS-B
Sun 12:56:57 AM 18.5840 74.0820 200° South 178 205 3,800  Level FlightAware ADS-B
Sun 12:57:12 AM 18.5820 74.0700 260° West 166 191 3,800  Level FlightAware ADS-B
Sun 12:57:42 AM 18.5820 74.0460 270° West 152 175 3,800 -109 Level FlightAware ADS-B
Sun 12:58:07 AM 18.5830 74.0290 274° West 140 161 3,700 -545 Descending FlightAware ADS-B
Sun 12:58:37 AM 18.5830 74.0110 270° West 135 155 3,300 -655 Descending FlightAware ADS-B
Sun 12:59:02 AM 18.5830 73.9930 270° West 136 157 3,100 -655 Descending FlightAware ADS-B
Sun 12:59:32 AM 18.5820 73.9730 267° West 136 157 2,700 -764 Descending FlightAware ADS-B
Sun 12:59:57 AM 18.5800 73.9560 263° West 137 158 2,400 -655 Descending FlightAware ADS-B
Sun 01:00:27 AM 18.5810 73.9360 273° West 136 157 2,100 -369 Descending FlightAware ADS-B
Sun 01:01:02 AM 18.5820 73.9140 273° West 136 157 2,000 -171 Descending FlightAware ADS-B
Sun 01:03:00 AM 18.5821 73.9197 89° East  Level Estimated
Sun 01:04:00 AM 18.5821 73.9197 289° West  Level Estimated
Sun 01:05:00 AM 18.5821 73.9197 289° West  Level Estimated
Sun 01:06:00 AM 18.5821 73.9197 289° West  Level Estimated
Sun 01:07:00 AM 18.5821 73.9197 289° West  Level Estimated
Sun 01:08:00 AM 18.5821 73.9197 289° West  Level Estimated
Sun 01:09:00 AM 18.5821 73.9197 289° West  Level Estimated
Sun 01:10:00 AM 18.5821 73.9197 289° West  Level Estimated

Login

Don't have an account? Register now (free) for customized features, flight alerts, and more!